Time;durP1;ratioP1;P1;durP2;ratioP2;P2;SDS_P1;SDS_P2;PMS_P1;PMS_P2;Temp;Humidity;BMP_temperature;BMP_pressure;BME280_temperature;BME280_humidity;BME280_pressure;Samples;Min_cycle;Max_cycle;Signal;HPM_P1;HPM_P2
2022/09/06 00:01:22;;;;;;;4.97;3.53;;;;;;;15.25;91.97;97714.53;5045842;28;20080;-69
2022/09/06 00:03:49;;;;;;;4.30;3.05;;;;;;;14.74;91.13;97646.66;5045689;28;20057;-69
2022/09/06 00:06:18;;;;;;;6.65;3.30;;;;;;;15.09;91.04;97716.78;5032917;28;20061;-68
2022/09/06 00:08:46;;;;;;;7.03;3.45;;;;;;;15.02;90.92;97705.53;5046067;28;20057;-68
2022/09/06 00:11:14;;;;;;;4.05;2.83;;;;;;;15.03;91.48;97707.16;5030161;28;20520;-68
2022/09/06 00:13:41;;;;;;;5.43;3.03;;;;;;;15.00;92.45;97719.84;5004820;28;20054;-68
2022/09/06 00:16:12;;;;;;;4.78;2.58;;;;;;;14.72;92.24;97682.47;5006173;28;20053;-69
2022/09/06 00:18:39;;;;;;;7.07;3.22;;;;;;;14.28;91.86;97642.53;5004605;28;20065;-68
2022/09/06 00:21:34;;;;;;;4.90;3.13;;;;;;;14.90;92.32;97714.16;5006189;28;20072;-68
2022/09/06 00:24:02;;;;;;;4.47;3.10;;;;;;;14.87;92.89;97714.94;5003152;28;20057;-67
2022/09/06 00:26:29;;;;;;;7.35;3.50;;;;;;;14.45;92.47;97645.53;5005739;28;20065;-69
2022/09/06 00:28:56;;;;;;;9.68;4.00;;;;;;;14.88;92.91;97722.09;5006242;28;20507;-69
2022/09/06 00:31:25;;;;;;;6.70;3.28;;;;;;;14.92;92.58;97714.59;5004733;28;20057;-69
2022/09/06 00:33:52;;;;;;;5.05;3.67;;;;;;;14.57;92.83;97666.78;5005573;28;20056;-69
2022/09/06 00:36:20;;;;;;;6.38;3.20;;;;;;;14.92;92.53;97706.22;5005514;28;20058;-69
2022/09/06 00:38:46;;;;;;;4.55;3.28;;;;;;;14.75;92.76;97701.22;5005302;28;20073;-69
2022/09/06 00:41:15;;;;;;;3.80;2.97;;;;;;;14.78;92.89;97706.06;5005716;28;20528;-69
2022/09/06 00:43:42;;;;;;;7.05;3.15;;;;;;;14.76;92.57;97711.22;5005828;28;20056;-69
2022/09/06 00:46:17;;;;;;;4.28;3.00;;;;;;;14.04;92.46;97604.00;5004026;28;20112;-68
2022/09/06 00:48:47;;;;;;;6.45;3.00;;;;;;;14.45;93.17;97678.19;5005620;28;20487;-68
2022/09/06 00:51:15;;;;;;;4.07;2.85;;;;;;;14.59;93.42;97704.25;5005458;28;20119;-68
2022/09/06 00:53:42;;;;;;;4.20;2.88;;;;;;;14.44;94.70;97702.47;5003952;28;20053;-70
2022/09/06 00:56:09;;;;;;;5.07;3.20;;;;;;;14.04;95.08;97629.06;5005273;28;20057;-69
2022/09/06 00:58:37;;;;;;;4.55;2.60;;;;;;;14.53;95.08;97699.38;5005376;28;20433;-69
2022/09/06 01:01:05;;;;;;;5.88;3.00;;;;;;;14.43;94.63;97678.56;5005112;28;20069;-69
2022/09/06 01:03:33;;;;;;;3.97;2.67;;;;;;;13.73;94.03;97559.84;5003962;28;20061;-70
2022/09/06 01:06:25;;;;;;;6.53;3.15;;;;;;;14.53;93.78;97699.38;5005362;28;20061;-69
2022/09/06 01:08:51;;;;;;;4.78;3.25;;;;;;;14.48;94.48;97708.13;5005340;28;20058;-68
2022/09/06 01:11:40;;;;;;;4.95;3.03;;;;;;;14.22;95.29;97663.53;5026916;28;20056;-69
2022/09/06 01:14:14;;;;;;;5.13;3.35;;;;;;;14.48;95.31;97696.97;5043369;28;20056;-69
2022/09/06 01:16:49;;;;;;;4.00;3.05;;;;;;;14.38;95.89;97703.19;5042814;28;20458;-69
2022/09/06 01:19:31;;;;;;;3.60;3.08;;;;;;;14.45;94.87;97694.91;5044674;28;20057;-70
2022/09/06 01:22:13;;;;;;;5.90;3.08;;;;;;;14.37;95.51;97696.81;5044783;28;20072;-69
2022/09/06 01:25:10;;;;;;;6.88;3.53;;;;;;;12.41;95.56;97383.09;5043000;28;20048;-68
2022/09/06 01:27:43;;;;;;;5.47;3.20;;;;;;;14.31;95.84;97700.31;5043252;28;20049;-69
2022/09/06 01:30:11;;;;;;;6.17;3.40;;;;;;;14.19;94.87;97661.50;5042918;28;20053;-69
2022/09/06 01:32:50;;;;;;;3.38;2.60;;;;;;;14.25;95.30;97693.47;5044725;28;20045;-68
2022/09/06 01:35:45;;;;;;;5.97;3.00;;;;;;;14.25;96.20;97693.47;5042944;28;20068;-69
2022/09/06 01:38:13;;;;;;;4.97;2.78;;;;;;;14.25;95.70;97699.84;5059591;28;20053;-69
2022/09/06 01:40:40;;;;;;;7.25;3.92;;;;;;;14.25;96.57;97693.47;5043043;28;20175;-69
2022/09/06 01:43:11;;;;;;;6.85;3.10;;;;;;;14.18;95.33;97688.56;5044366;28;20053;-69
2022/09/06 01:46:23;;;;;;;5.63;3.40;;;;;;;14.18;95.81;97685.78;5044112;28;20053;-70
2022/09/06 01:48:52;;;;;;;4.38;3.15;;;;;;;14.10;95.79;97681.28;5034348;28;20057;-69
2022/09/06 01:51:35;;;;;;;5.80;3.38;;;;;;;14.08;96.06;97682.84;5042889;28;20048;-69
2022/09/06 01:54:25;;;;;;;6.15;3.20;;;;;;;12.87;96.13;97495.78;5044180;28;20057;-69
2022/09/06 01:56:52;;;;;;;7.88;3.10;;;;;;;13.88;96.70;97673.03;5042561;28;20488;-69
2022/09/06 01:59:30;;;;;;;4.82;2.90;;;;;;;13.79;97.39;97666.91;5042549;28;20060;-69
2022/09/06 02:02:13;;;;;;;5.72;3.00;;;;;;;13.83;97.48;97665.78;5043984;28;20507;-69
2022/09/06 02:04:57;;;;;;;4.47;2.95;;;;;;;13.81;96.98;97670.13;5044319;28;20155;-68
2022/09/06 02:07:26;;;;;;;7.03;3.22;;;;;;;13.82;97.40;97668.94;5044281;28;20052;-69
2022/09/06 02:09:59;;;;;;;6.97;3.38;;;;;;;13.50;96.75;97601.66;5042623;28;20060;-68
2022/09/06 02:12:29;;;;;;;4.75;3.08;;;;;;;13.62;97.20;97627.31;5024260;28;20065;-69
2022/09/06 02:15:07;;;;;;;5.00;3.25;;;;;;;13.54;97.63;97645.09;5023904;28;20053;-68
2022/09/06 02:17:42;;;;;;;4.18;3.10;;;;;;;13.78;97.58;97662.53;5024473;28;20065;-68
2022/09/06 02:20:16;;;;;;;5.13;3.17;;;;;;;13.14;96.87;97555.84;5024318;28;20527;-69
2022/09/06 02:22:46;;;;;;;8.27;3.05;;;;;;;13.58;97.90;97643.16;5024410;28;20053;-69
2022/09/06 02:25:20;;;;;;;5.38;2.90;;;;;;;13.63;98.50;97658.72;5022307;28;20141;-69
2022/09/06 02:27:47;;;;;;;3.92;3.00;;;;;;;13.43;98.82;97641.34;5022831;28;20064;-68
2022/09/06 02:30:14;;;;;;;4.93;2.88;;;;;;;13.72;98.41;97658.47;5027062;28;20532;-69
2022/09/06 02:32:58;;;;;;;4.80;3.10;;;;;;;13.41;97.54;97627.00;5026652;28;20057;-69
2022/09/06 02:35:25;;;;;;;5.90;3.05;;;;;;;13.65;97.82;97664.75;5027655;28;20064;-69
2022/09/06 02:37:52;;;;;;;4.90;3.53;;;;;;;13.49;98.75;97645.41;5028108;28;20064;-69
2022/09/06 02:40:19;;;;;;;4.35;3.72;;;;;;;13.33;100.00;97653.13;5026179;28;20080;-69
2022/09/06 02:42:46;;;;;;;8.05;3.42;;;;;;;13.06;100.00;97606.97;5025959;28;20532;-69
2022/09/06 02:45:13;;;;;;;4.40;3.28;;;;;;;11.49;100.00;97330.00;5025731;28;20075;-69
2022/09/06 02:47:39;;;;;;;6.28;3.35;;;;;;;13.64;99.13;97680.63;5026300;28;20067;-68
2022/09/06 02:50:07;;;;;;;5.43;3.08;;;;;;;13.54;98.43;97664.59;5027525;28;20099;-68
2022/09/06 02:52:33;;;;;;;5.80;2.50;;;;;;;13.13;97.57;97593.19;5027411;28;20057;-68
2022/09/06 02:55:00;;;;;;;9.43;4.65;;;;;;;13.57;96.58;97663.84;5027740;28;20548;-68
2022/09/06 02:57:27;;;;;;;8.75;4.10;;;;;;;12.84;95.92;97535.47;5026776;28;20076;-68
2022/09/06 02:59:53;;;;;;;6.32;3.40;;;;;;;13.06;96.50;97593.06;5027282;28;20064;-69
2022/09/06 03:02:20;;;;;;;7.18;3.60;;;;;;;13.33;96.91;97630.03;5025841;28;20049;-69
2022/09/06 03:04:47;;;;;;;5.95;3.78;;;;;;;13.28;97.64;97639.50;5025926;28;20049;-69
2022/09/06 03:07:13;;;;;;;6.13;3.08;;;;;;;13.32;98.29;97654.31;5026820;28;20058;-68
2022/09/06 03:09:40;;;;;;;6.63;3.25;;;;;;;13.49;97.58;97670.47;5025653;28;20049;-68
2022/09/06 03:12:07;;;;;;;7.82;3.47;;;;;;;13.39;98.01;97667.50;5042285;28;20504;-68
2022/09/06 03:14:34;;;;;;;9.20;3.65;;;;;;;13.35;97.83;97661.91;5047156;28;20064;-69
2022/09/06 03:17:02;;;;;;;5.57;2.85;;;;;;;13.33;97.90;97644.75;5045440;28;20060;-68
2022/09/06 03:19:29;;;;;;;6.35;3.90;;;;;;;13.47;96.65;97663.66;5046682;28;20514;-68
2022/09/06 03:21:56;;;;;;;3.95;2.90;;;;;;;13.34;97.77;97668.63;5045614;28;20057;-68
2022/09/06 03:24:22;;;;;;;4.60;2.67;;;;;;;13.19;98.25;97641.75;5046681;28;20053;-68
2022/09/06 03:26:49;;;;;;;4.95;2.67;;;;;;;12.81;98.39;97586.25;5046492;28;20534;-68
2022/09/06 03:29:16;;;;;;;3.30;2.70;;;;;;;13.20;98.01;97665.63;5045093;28;20524;-69
2022/09/06 03:31:43;;;;;;;7.10;3.30;;;;;;;13.02;98.65;97635.91;5046567;28;20531;-67
2022/09/06 03:34:09;;;;;;;4.90;2.95;;;;;;;13.12;98.39;97658.31;5046396;28;20061;-67
2022/09/06 03:36:37;;;;;;;3.35;2.85;;;;;;;13.13;98.33;97659.94;5046830;28;20052;-67
2022/09/06 03:39:03;;;;;;;7.85;3.97;;;;;;;13.12;97.70;97658.31;5046509;28;20060;-68
2022/09/06 03:41:30;;;;;;;5.05;3.45;;;;;;;13.08;97.04;97663.03;5045257;28;20053;-67
2022/09/06 03:43:57;;;;;;;5.68;3.70;;;;;;;12.62;98.21;97593.84;5044841;28;20053;-67
2022/09/06 03:46:23;;;;;;;5.57;3.53;;;;;;;13.04;99.11;97664.94;5044166;28;20068;-67
2022/09/06 03:48:50;;;;;;;5.05;2.85;;;;;;;13.07;98.90;97666.97;5044811;28;20057;-68
2022/09/06 03:51:17;;;;;;;4.43;3.30;;;;;;;13.02;99.68;97670.09;5046207;28;20500;-68
2022/09/06 03:53:44;;;;;;;6.53;3.20;;;;;;;13.09;99.22;97667.41;5044393;28;20052;-69
2022/09/06 03:56:10;;;;;;;8.40;3.50;;;;;;;12.78;99.72;97625.94;5046427;28;20057;-68
2022/09/06 03:58:37;;;;;;;10.30;3.50;;;;;;;13.22;98.38;97673.59;5046425;28;20373;-69
2022/09/06 04:01:06;;;;;;;8.35;3.65;;;;;;;13.10;98.28;97643.97;5044244;28;20048;-69
2022/09/06 04:03:34;;;;;;;5.30;3.75;;;;;;;13.33;98.82;97680.94;5045970;28;20053;-68
2022/09/06 04:06:02;;;;;;;6.15;3.08;;;;;;;13.17;97.93;97632.16;5045876;28;20065;-68
2022/09/06 04:08:29;;;;;;;6.43;3.47;;;;;;;13.35;98.36;97683.34;5044701;28;20103;-68
2022/09/06 04:10:57;;;;;;;6.38;3.45;;;;;;;13.57;97.82;97679.72;5039005;28;20061;-68
2022/09/06 04:13:25;;;;;;;6.13;3.10;;;;;;;13.43;98.21;97651.69;5025352;28;20053;-69
2022/09/06 04:15:52;;;;;;;8.13;3.67;;;;;;;13.37;97.77;97640.03;5024015;28;20057;-68
2022/09/06 04:18:20;;;;;;;11.95;4.65;;;;;;;13.35;97.04;97634.06;5025575;28;20053;-69
2022/09/06 04:20:48;;;;;;;18.80;8.25;;;;;;;13.58;96.95;97686.88;5025957;28;20832;-68
2022/09/06 04:23:16;;;;;;;16.50;6.22;;;;;;;13.78;95.94;97690.38;5025834;28;20064;-68
2022/09/06 04:25:47;;;;;;;7.13;3.92;;;;;;;13.95;96.57;97684.25;5025666;28;20054;-69
2022/09/06 04:28:14;;;;;;;6.47;3.53;;;;;;;14.02;96.52;97681.59;5025332;28;20504;-69
2022/09/06 04:30:41;;;;;;;5.88;3.67;;;;;;;14.17;96.32;97675.00;5024406;28;20050;-69
2022/09/06 04:33:08;;;;;;;5.13;3.25;;;;;;;14.22;95.61;97678.28;5025706;28;20576;-67
2022/09/06 04:35:35;;;;;;;6.10;3.63;;;;;;;14.18;93.95;97676.63;5025652;28;20049;-67
2022/09/06 04:38:04;;;;;;;7.00;3.17;;;;;;;14.48;93.85;97680.22;5025333;28;20061;-67
2022/09/06 04:40:30;;;;;;;7.15;4.13;;;;;;;14.40;93.55;97647.88;5023618;28;20053;-68
2022/09/06 04:42:57;;;;;;;7.47;4.70;;;;;;;14.48;93.25;97652.34;5025606;28;20053;-68
2022/09/06 04:45:24;;;;;;;11.70;5.00;;;;;;;14.22;92.23;97575.19;5025345;28;20076;-68
2022/09/06 04:47:50;;;;;;;7.03;3.75;;;;;;;14.85;91.00;97639.19;5025101;28;20057;-68
2022/09/06 04:50:17;;;;;;;8.38;2.95;;;;;;;14.63;89.70;97553.72;5025265;28;20060;-68
2022/09/06 04:52:44;;;;;;;6.82;3.15;;;;;;;15.27;89.70;97656.31;5024979;28;20053;-68
2022/09/06 04:55:10;;;;;;;6.32;3.50;;;;;;;15.55;89.80;97667.75;5024840;28;20054;-68
2022/09/06 04:57:37;;;;;;;4.95;2.72;;;;;;;15.21;90.04;97602.03;5025211;28;20053;-68
2022/09/06 05:00:10;;;;;;;3.15;2.60;;;;;;;15.59;89.66;97663.00;5023667;28;20523;-68
2022/09/06 05:02:37;;;;;;;6.07;2.95;;;;;;;15.75;88.97;97676.66;5024927;28;20061;-68
2022/09/06 05:05:04;;;;;;;5.28;3.45;;;;;;;15.92;88.49;97665.59;5024979;28;20426;-68
2022/09/06 05:07:31;;;;;;;5.15;3.20;;;;;;;15.64;87.61;97615.16;5024693;28;20504;-69
2022/09/06 05:09:58;;;;;;;5.85;2.90;;;;;;;16.06;87.04;97660.09;5025087;28;20060;-69
2022/09/06 05:12:24;;;;;;;3.80;2.80;;;;;;;16.28;86.34;97673.00;5043423;28;20435;-68
2022/09/06 05:14:51;;;;;;;5.10;3.13;;;;;;;16.27;86.07;97649.03;5044979;28;20053;-68
2022/09/06 05:17:18;;;;;;;8.43;3.58;;;;;;;16.39;84.79;97668.25;5044613;28;20049;-69
2022/09/06 05:19:44;;;;;;;17.25;4.85;;;;;;;15.57;91.17;97670.94;5043196;28;20436;-67
2022/09/06 05:22:11;;;;;;;20.58;6.05;;;;;;;14.93;94.29;97580.31;5044768;28;20172;-67
2022/09/06 05:24:38;;;;;;;5.72;3.90;;;;;;;15.88;91.97;97667.59;5044577;28;20431;-68
2022/09/06 05:27:06;;;;;;;12.85;4.75;;;;;;;16.07;90.67;97677.69;5042720;28;20083;-67
2022/09/06 05:29:33;;;;;;;5.32;3.55;;;;;;;15.55;89.65;97589.56;5044588;28;20428;-68
2022/09/06 05:31:59;;;;;;;5.00;3.35;;;;;;;15.95;88.27;97645.25;5044218;28;20060;-70
2022/09/06 05:34:26;;;;;;;10.02;4.18;;;;;;;16.26;88.98;97675.41;5044116;28;20063;-69
2022/09/06 05:36:53;;;;;;;7.70;4.03;;;;;;;16.42;89.23;97667.44;5044482;28;20052;-70
2022/09/06 05:39:20;;;;;;;10.77;4.03;;;;;;;16.16;87.91;97625.81;5044428;28;20044;-69
2022/09/06 05:41:47;;;;;;;8.32;4.03;;;;;;;16.58;88.23;97667.94;5044248;28;20049;-69
2022/09/06 05:44:14;;;;;;;9.30;4.03;;;;;;;16.63;87.19;97667.56;5044335;28;20459;-68
2022/09/06 05:46:42;;;;;;;8.93;3.90;;;;;;;17.03;86.51;97652.47;5043737;28;20068;-68
2022/09/06 05:49:09;;;;;;;8.30;3.92;;;;;;;16.48;85.75;97596.03;5042585;28;20430;-69
2022/09/06 05:51:36;;;;;;;33.42;8.32;;;;;;;16.53;89.37;97662.72;5043236;28;20055;-69
2022/09/06 05:54:03;;;;;;;27.20;7.13;;;;;;;16.88;88.16;97652.84;5042660;28;20511;-68
2022/09/06 05:56:29;;;;;;;8.63;3.88;;;;;;;16.92;86.39;97631.25;5032897;28;20048;-69
2022/09/06 05:58:56;;;;;;;4.88;3.40;;;;;;;17.04;85.25;97614.09;5043156;28;20146;-68
2022/09/06 06:01:28;;;;;;;5.68;3.40;;;;;;;17.53;84.23;97656.16;5042567;28;20053;-67
2022/09/06 06:04:01;;;;;;;7.22;3.47;;;;;;;17.92;83.12;97642.88;5045460;28;20530;-70
2022/09/06 06:06:30;;;;;;;7.07;2.95;;;;;;;18.02;80.86;97620.41;5048110;28;20056;-67
2022/09/06 06:08:57;;;;;;;6.72;3.20;;;;;;;18.61;79.70;97645.88;5046623;28;20048;-69
2022/09/06 06:11:26;;;;;;;3.65;2.97;;;;;;;18.73;77.37;97626.56;5037910;28;20141;-68
2022/09/06 06:13:53;;;;;;;5.70;3.10;;;;;;;18.88;76.68;97633.69;5028246;28;20143;-68
2022/09/06 06:16:21;;;;;;;9.15;3.33;;;;;;;19.37;75.69;97627.75;5026748;28;20053;-68
2022/09/06 06:18:48;;;;;;;8.85;3.40;;;;;;;19.63;73.62;97628.34;5026485;28;20055;-68
2022/09/06 06:21:23;;;;;;;5.13;2.78;;;;;;;19.64;72.64;97641.16;5027762;28;20060;-67
2022/09/06 06:23:52;;;;;;;6.90;3.40;;;;;;;19.32;74.20;97625.38;5026623;28;20045;-68
2022/09/06 06:26:19;;;;;;;9.65;3.03;;;;;;;19.49;74.11;97624.44;5027844;28;20061;-68
2022/09/06 06:28:46;;;;;;;16.08;4.43;;;;;;;18.79;74.68;97523.88;5027726;28;20063;-68
2022/09/06 06:31:13;;;;;;;4.97;2.65;;;;;;;19.53;73.94;97625.22;5026818;28;20512;-69
2022/09/06 06:33:40;;;;;;;5.65;2.75;;;;;;;18.98;73.54;97554.22;5027755;28;20064;-67
2022/09/06 06:36:20;;;;;;;4.45;2.60;;;;;;;18.99;74.01;97571.84;5027797;28;20564;-66
2022/09/06 06:38:48;;;;;;;10.98;4.82;;;;;;;19.34;73.85;97617.34;5027559;28;20539;-66
2022/09/06 06:41:17;;;;;;;5.22;3.17;;;;;;;19.29;74.28;97637.47;5027499;28;20050;-66
2022/09/06 06:43:44;;;;;;;4.15;3.30;;;;;;;17.66;74.09;97344.31;5027813;28;20068;-68
2022/09/06 06:46:17;;;;;;;8.68;3.63;;;;;;;19.19;74.12;97565.25;5027271;28;20072;-68
2022/09/06 06:48:45;;;;;;;5.50;2.90;;;;;;;18.43;76.33;97511.28;5027239;28;20054;-67
2022/09/06 06:51:14;;;;;;;3.47;2.50;;;;;;;19.62;74.07;97626.75;5026024;28;20139;-69
2022/09/06 06:53:42;;;;;;;7.20;3.17;;;;;;;19.27;74.32;97560.38;5027512;28;20507;-69
2022/09/06 06:56:26;;;;;;;8.23;2.75;;;;;;;19.88;73.38;97628.91;5027246;28;20174;-69
2022/09/06 06:58:56;;;;;;;9.88;2.88;;;;;;;20.01;72.25;97621.53;5027435;28;20053;-68
2022/09/06 07:01:25;;;;;;;5.10;2.58;;;;;;;20.13;71.67;97629.44;5027401;28;20124;-69
2022/09/06 07:03:53;;;;;;;6.18;3.05;;;;;;;19.65;71.91;97603.44;5027181;28;20084;-67
2022/09/06 07:06:20;;;;;;;5.88;3.17;;;;;;;19.86;70.93;97603.19;5027526;28;20056;-70
2022/09/06 07:09:07;;;;;;;8.45;3.88;;;;;;;20.20;71.05;97624.53;5027098;28;20053;-69
2022/09/06 07:11:34;;;;;;;7.30;3.33;;;;;;;20.43;69.81;97626.69;5037633;28;20049;-69
2022/09/06 07:14:00;;;;;;;5.47;2.90;;;;;;;20.59;69.64;97630.53;5046037;28;20060;-70
2022/09/06 07:16:28;;;;;;;11.70;3.03;;;;;;;20.76;68.48;97592.06;5046891;28;20458;-71
2022/09/06 07:18:55;;;;;;;6.22;4.00;;;;;;;20.77;67.62;97568.34;5045102;28;20124;-70
2022/09/06 07:21:25;;;;;;;6.05;2.83;;;;;;;21.22;66.90;97623.19;5045383;28;20060;-69
2022/09/06 07:24:07;;;;;;;3.47;2.58;;;;;;;21.50;66.41;97622.72;5046524;28;20152;-71
2022/09/06 07:26:36;;;;;;;7.60;4.32;;;;;;;21.39;65.86;97616.47;5046900;28;20123;-72
2022/09/06 07:29:05;;;;;;;4.38;3.58;;;;;;;20.60;69.09;97634.09;5046040;28;20523;-69
2022/09/06 07:31:33;;;;;;;4.53;3.13;;;;;;;21.17;66.35;97625.69;5046700;28;20057;-70
2022/09/06 07:34:20;;;;;;;6.15;3.20;;;;;;;20.77;66.92;97551.44;5046571;28;20052;-73
2022/09/06 07:36:50;;;;;;;4.20;3.40;;;;;;;21.71;64.64;97627.22;5046774;28;20074;-68
2022/09/06 07:39:17;;;;;;;4.43;3.40;;;;;;;21.73;63.76;97619.94;5045081;28;20574;-68
2022/09/06 07:41:43;;;;;;;3.97;3.17;;;;;;;20.95;64.22;97498.44;5046575;28;20522;-69
2022/09/06 07:44:10;;;;;;;4.65;3.22;;;;;;;21.51;64.96;97623.53;5044943;28;20543;-68
2022/09/06 07:46:37;;;;;;;5.43;3.05;;;;;;;21.16;63.68;97533.94;5044471;28;20049;-68
2022/09/06 07:49:04;;;;;;;8.52;3.58;;;;;;;21.81;63.87;97612.16;5044542;28;20479;-71
2022/09/06 07:51:32;;;;;;;7.93;2.60;;;;;;;21.47;63.70;97560.75;5044602;28;20064;-70
2022/09/06 07:53:58;;;;;;;6.03;2.80;;;;;;;21.71;62.79;97580.06;5046085;28;20049;-70
2022/09/06 07:56:45;;;;;;;4.47;3.03;;;;;;;21.79;62.99;97550.53;5045630;28;20123;-69
2022/09/06 07:59:12;;;;;;;3.28;2.80;;;;;;;22.08;61.94;97568.50;5044430;28;20049;-68
2022/09/06 08:01:39;;;;;;;10.02;3.13;;;;;;;22.24;61.45;97543.19;5044195;28;20049;-68
2022/09/06 08:04:08;;;;;;;2.72;2.53;;;;;;;22.91;60.12;97605.91;5045922;28;20242;-71
2022/09/06 08:06:37;;;;;;;3.58;2.92;;;;;;;23.08;59.57;97613.19;5045647;28;20541;-68
2022/09/06 08:09:24;;;;;;;4.07;3.00;;;;;;;23.21;57.46;97583.78;5045105;28;20055;-67
2022/09/06 08:11:51;;;;;;;7.78;3.60;;;;;;;23.21;57.92;97603.56;5028412;28;20061;-71
2022/09/06 08:14:19;;;;;;;4.60;3.10;;;;;;;22.78;56.87;97521.03;5005855;28;20056;-68
2022/09/06 08:16:46;;;;;;;3.30;3.00;;;;;;;23.48;56.18;97586.38;5006143;28;20155;-69
2022/09/06 08:19:13;;;;;;;3.72;2.78;;;;;;;23.61;54.32;97602.22;5004157;28;20060;-69
2022/09/06 08:21:40;;;;;;;3.05;2.63;;;;;;;21.99;54.07;97317.16;5005913;28;20053;-70
2022/09/06 08:24:11;;;;;;;4.30;2.92;;;;;;;23.68;54.39;97595.56;5020865;28;20046;-68
2022/09/06 08:26:47;;;;;;;5.53;3.30;;;;;;;23.81;53.59;97562.47;5005167;28;20054;-70
2022/09/06 08:29:14;;;;;;;7.40;3.78;;;;;;;22.46;52.18;97298.66;5005594;28;20064;-71
2022/09/06 08:31:43;;;;;;;3.13;2.90;;;;;;;23.62;50.79;97478.53;5004399;28;20045;-69
2022/09/06 08:34:11;;;;;;;6.32;3.78;;;;;;;24.41;51.46;97575.78;5005977;28;20054;-69
2022/09/06 08:36:39;;;;;;;3.88;3.08;;;;;;;24.55;50.61;97575.34;5005881;28;20077;-71
2022/09/06 08:39:10;;;;;;;3.40;3.00;;;;;;;24.47;50.10;97550.53;5020707;28;20058;-69
2022/09/06 08:42:07;;;;;;;4.43;3.20;;;;;;;24.48;51.28;97567.09;5005533;28;20057;-69
2022/09/06 08:44:39;;;;;;;5.55;3.42;;;;;;;24.52;50.72;97564.13;4996744;28;20054;-71
2022/09/06 08:47:23;;;;;;;4.97;3.55;;;;;;;24.22;51.25;97556.09;5017948;28;20057;-69
2022/09/06 08:49:56;;;;;;;3.33;2.85;;;;;;;24.33;50.98;97563.06;5005612;28;20220;-68
2022/09/06 08:52:26;;;;;;;5.80;3.25;;;;;;;24.13;51.87;97556.78;5005533;28;20409;-69
2022/09/06 08:55:14;;;;;;;3.67;3.05;;;;;;;24.38;50.95;97554.00;5005379;28;20435;-69
2022/09/06 08:57:43;;;;;;;4.65;3.03;;;;;;;24.60;50.21;97546.47;5005682;28;20228;-69
2022/09/06 09:00:12;;;;;;;3.50;3.20;;;;;;;24.08;50.17;97517.69;5005658;28;20069;-69
2022/09/06 09:02:50;;;;;;;4.88;2.90;;;;;;;24.38;50.73;97542.69;5020270;28;20417;-69
2022/09/06 09:05:30;;;;;;;6.00;3.63;;;;;;;24.40;50.62;97545.88;5005178;28;20465;-69
2022/09/06 09:08:05;;;;;;;8.23;3.10;;;;;;;23.57;50.01;97549.78;5019952;28;20065;-68
2022/09/06 09:10:47;;;;;;;4.03;2.78;;;;;;;23.73;48.88;97524.28;5006455;28;20513;-68
2022/09/06 09:13:22;;;;;;;4.30;3.08;;;;;;;24.15;48.59;97539.34;5042949;28;20508;-68
2022/09/06 09:15:49;;;;;;;2.90;2.50;;;;;;;24.35;47.87;97535.09;5042909;28;20056;-69
2022/09/06 09:18:22;;;;;;;6.10;3.00;;;;;;;24.71;47.19;97529.97;5044354;28;20056;-69
2022/09/06 09:20:49;;;;;;;;;;;;;;;24.98;45.99;97521.81;5044733;28;20049;-69
2022/09/06 09:23:16;;;;;;;5.85;2.67;;;;;;;24.95;45.57;97502.09;5044497;28;19924;-69
2022/09/06 09:25:45;;;;;;;3.65;3.35;;;;;;;25.39;45.20;97525.78;5044070;28;20057;-69
2022/09/06 09:28:17;;;;;;;5.05;3.20;;;;;;;25.70;44.38;97507.66;5043045;28;20526;-68
2022/09/06 09:30:51;;;;;;;5.60;3.13;;;;;;;25.92;44.58;97513.38;5044774;28;20048;-68
2022/09/06 09:33:20;;;;;;;;;;;;;;;26.19;43.83;97499.41;5044951;28;20049;-69
2022/09/06 09:35:47;;;;;;;3.45;3.15;;;;;;;26.29;43.55;97492.50;5042691;28;19932;-67
2022/09/06 09:38:25;;;;;;;4.55;3.88;;;;;;;25.68;43.15;97446.91;5044171;28;20056;-69
2022/09/06 09:40:51;;;;;;;3.53;3.20;;;;;;;26.53;43.15;97502.16;5044328;28;20534;-69
2022/09/06 09:43:34;;;;;;;4.07;3.15;;;;;;;26.74;41.88;97504.19;5044062;28;20140;-70
2022/09/06 09:46:07;;;;;;;4.30;2.92;;;;;;;26.97;41.50;97492.28;5043908;28;20057;-70
2022/09/06 09:48:34;;;;;;;4.68;3.15;;;;;;;27.22;40.68;97486.34;5044143;28;20107;-68
2022/09/06 09:51:21;;;;;;;5.20;4.00;;;;;;;25.56;43.20;97485.44;5042737;28;20052;-69
2022/09/06 09:53:58;;;;;;;9.02;4.38;;;;;;;25.40;44.13;97488.44;5044233;28;20064;-69
2022/09/06 09:56:53;;;;;;;4.65;3.45;;;;;;;25.87;43.34;97479.88;5042542;28;20060;-69
2022/09/06 09:59:25;;;;;;;3.47;3.17;;;;;;;26.09;43.63;97483.53;5042731;28;20584;-69
2022/09/06 10:02:00;;;;;;;3.20;2.90;;;;;;;26.46;43.17;97469.09;5044065;28;20455;-69
2022/09/06 10:04:28;;;;;;;3.72;3.20;;;;;;;26.59;42.27;97472.66;5042310;28;20083;-68
2022/09/06 10:07:20;;;;;;;3.78;3.40;;;;;;;27.02;41.85;97471.75;5043868;28;20072;-69
2022/09/06 10:10:00;;;;;;;4.13;3.72;;;;;;;26.99;41.78;97447.09;5042569;28;20060;-68
2022/09/06 10:12:31;;;;;;;5.65;3.72;;;;;;;27.32;41.65;97467.28;5027169;28;20979;-69
2022/09/06 10:14:58;;;;;;;6.05;3.80;;;;;;;26.84;41.60;97411.19;5024729;28;20401;-68
2022/09/06 10:17:37;;;;;;;6.35;3.92;;;;;;;26.59;41.54;97426.38;5024044;28;20050;-68
2022/09/06 10:20:09;;;;;;;3.20;2.90;;;;;;;24.66;41.89;97119.66;5024536;28;20057;-70
2022/09/06 10:22:39;;;;;;;5.57;3.33;;;;;;;27.01;41.74;97453.13;5022807;28;20068;-70
2022/09/06 10:25:14;;;;;;;3.22;3.03;;;;;;;26.73;41.82;97454.25;5024302;28;20068;-68
2022/09/06 10:27:57;;;;;;;7.35;3.70;;;;;;;26.19;42.94;97442.59;5024001;28;20060;-68
2022/09/06 10:31:14;;;;;;;5.60;3.60;;;;;;;26.82;41.01;97445.78;5024121;28;20131;-68
2022/09/06 10:33:44;;;;;;;3.75;3.17;;;;;;;26.99;40.81;97441.41;5022040;28;20061;-69
2022/09/06 10:36:16;;;;;;;4.32;3.45;;;;;;;27.38;40.07;97449.13;5023634;28;20072;-69
2022/09/06 10:38:55;;;;;;;5.13;3.47;;;;;;;27.53;40.17;97438.72;5022218;28;20064;-70
2022/09/06 10:42:00;;;;;;;7.85;5.07;;;;;;;26.81;40.58;97438.50;5022447;28;20060;-67
2022/09/06 10:45:01;;;;;;;3.22;3.03;;;;;;;25.88;41.37;97481.44;5020297;28;20061;-69
2022/09/06 10:47:37;;;;;;;4.35;2.90;;;;;;;25.88;40.69;97416.16;5023042;28;20103;-69
2022/09/06 10:50:04;;;;;;;5.68;3.20;;;;;;;26.15;40.68;97431.38;5023379;28;20057;-69
2022/09/06 10:52:42;;;;;;;3.58;3.28;;;;;;;26.40;39.71;97359.34;5027133;28;20046;-71
2022/09/06 10:55:13;;;;;;;5.80;3.63;;;;;;;26.88;39.51;97364.28;5027257;28;20061;-75
2022/09/06 10:58:03;;;;;;;3.92;3.05;;;;;;;27.25;40.15;97428.50;5025974;28;20065;-72
2022/09/06 11:00:48;;;;;;;3.90;3.60;;;;;;;26.96;40.24;97427.34;5027190;28;20061;-70
2022/09/06 11:03:15;;;;;;;5.15;3.78;;;;;;;27.02;40.24;97426.25;5025513;28;20076;-73
2022/09/06 11:06:09;;;;;;;4.50;3.13;;;;;;;26.65;40.89;97431.03;5026692;28;20057;-73
2022/09/06 11:08:46;;;;;;;6.07;3.10;;;;;;;26.79;40.20;97418.28;5027016;28;20053;-70
2022/09/06 11:11:27;;;;;;;3.53;3.03;;;;;;;26.60;40.65;97383.28;5033785;28;20087;-70
2022/09/06 11:13:54;;;;;;;4.20;3.45;;;;;;;27.49;39.69;97426.69;5047384;28;20068;-73
2022/09/06 11:16:38;;;;;;;4.03;3.30;;;;;;;27.66;38.50;97368.16;5046776;28;20493;-71
2022/09/06 11:19:20;;;;;;;8.23;3.28;;;;;;;28.09;37.47;97299.41;5047188;28;20102;-71
2022/09/06 11:22:08;;;;;;;5.03;3.40;;;;;;;29.38;36.55;97404.63;5045155;28;20075;-71
2022/09/06 11:24:45;;;;;;;4.28;3.83;;;;;;;29.71;36.24;97398.84;5045238;28;20060;-71
2022/09/06 11:27:25;;;;;;;6.57;4.03;;;;;;;28.66;37.21;97402.16;5045071;28;20637;-73
2022/09/06 11:29:56;;;;;;;5.43;3.65;;;;;;;28.66;37.59;97405.78;5046600;28;20053;-72
2022/09/06 11:32:47;;;;;;;5.28;3.45;;;;;;;28.34;39.05;97405.72;5044955;28;20056;-72
2022/09/06 11:35:24;;;;;;;4.60;3.10;;;;;;;27.55;40.13;97333.69;5045553;28;20071;-72
2022/09/06 11:38:06;;;;;;;5.00;4.18;;;;;;;27.62;40.02;97326.88;5047019;28;20056;-71
2022/09/06 11:40:42;;;;;;;6.68;5.07;;;;;;;28.72;39.17;97392.44;5046368;28;20539;-69
2022/09/06 11:43:33;;;;;;;9.50;4.00;;;;;;;28.73;38.41;97394.06;5046691;28;20052;-70
2022/09/06 11:46:00;;;;;;;3.80;3.50;;;;;;;27.67;38.48;97329.88;5034992;28;20052;-71
2022/09/06 11:48:33;;;;;;;4.28;3.60;;;;;;;28.46;38.34;97379.06;5044960;28;20060;-71
2022/09/06 11:51:01;;;;;;;6.10;3.80;;;;;;;28.72;38.08;97380.28;5046264;28;20057;-70
2022/09/06 11:53:48;;;;;;;4.55;4.03;;;;;;;27.65;38.33;97338.09;5045771;28;20067;-71
2022/09/06 11:56:38;;;;;;;3.85;3.55;;;;;;;28.28;38.52;97373.47;5035010;28;20060;-70